Time;durP1;ratioP1;P1;durP2;ratioP2;P2;SDS_P1;SDS_P2;PMS_P1;PMS_P2;Temp;Humidity;BMP_temperature;BMP_pressure;BME280_temperature;BME280_humidity;BME280_pressure;Samples;Min_cycle;Max_cycle;Signal;HPM_P1;HPM_P2
2023/11/13 00:02:19;;;;;;;3.95;2.72;;;;;;;12.62;100.00;99694.63;5094484;28;20040;-67
2023/11/13 00:04:45;;;;;;;4.28;2.90;;;;;;;12.61;100.00;99682.38;5094398;28;20191;-66
2023/11/13 00:07:11;;;;;;;5.45;2.60;;;;;;;12.65;100.00;99689.81;5094443;28;20039;-65
2023/11/13 00:09:37;;;;;;;5.10;2.30;;;;;;;12.28;100.00;99702.94;5093777;28;20296;-65
2023/11/13 00:12:03;;;;;;;3.03;1.83;;;;;;;12.19;100.00;99704.00;5093832;28;20047;-64
2023/11/13 00:14:29;;;;;;;2.80;1.85;;;;;;;12.13;100.00;99698.38;5094755;28;20032;-67
2023/11/13 00:16:54;;;;;;;4.78;2.00;;;;;;;12.07;100.00;99700.88;5094518;28;20062;-67
2023/11/13 00:19:22;;;;;;;4.25;2.33;;;;;;;12.08;100.00;99707.84;5093937;28;20377;-65
2023/11/13 00:21:47;;;;;;;3.50;2.00;;;;;;;12.10;100.00;99716.47;5093795;28;20119;-65
2023/11/13 00:24:13;;;;;;;4.78;2.22;;;;;;;11.75;100.00;99720.38;5094315;28;20061;-67
2023/11/13 00:26:39;;;;;;;3.55;2.47;;;;;;;11.65;100.00;99712.59;5095351;28;20036;-67
2023/11/13 00:29:05;;;;;;;3.47;2.45;;;;;;;11.75;100.00;99717.72;5094540;28;20070;-65
2023/11/13 00:31:31;;;;;;;5.28;2.75;;;;;;;11.81;100.00;99722.38;5093521;28;20044;-65
2023/11/13 00:33:57;;;;;;;5.00;2.60;;;;;;;11.94;100.00;99725.31;5093664;28;20043;-65
2023/11/13 00:36:23;;;;;;;8.18;2.88;;;;;;;11.81;100.00;99733.81;5091719;28;20052;-66
2023/11/13 00:38:49;;;;;;;4.03;2.35;;;;;;;11.87;100.00;99728.81;5093560;28;20046;-66
2023/11/13 00:41:14;;;;;;;3.42;2.55;;;;;;;11.80;100.00;99724.22;5093341;28;20039;-64
2023/11/13 00:43:40;;;;;;;4.07;2.85;;;;;;;11.59;100.00;99720.41;5093346;28;20393;-65
2023/11/13 00:46:06;;;;;;;3.88;2.58;;;;;;;11.43;100.00;99721.25;5091993;28;20044;-66
2023/11/13 00:48:33;;;;;;;6.68;3.10;;;;;;;11.25;100.00;99710.00;5093970;28;20048;-66
2023/11/13 00:51:00;;;;;;;4.50;2.90;;;;;;;11.24;100.00;99730.38;5093936;28;20048;-64
2023/11/13 00:53:26;;;;;;;4.63;3.05;;;;;;;11.32;100.00;99734.84;5093632;28;20085;-64
2023/11/13 00:55:51;;;;;;;4.65;2.75;;;;;;;11.38;100.00;99740.31;5094085;28;20054;-67
2023/11/13 00:58:17;;;;;;;8.40;4.22;;;;;;;11.55;100.00;99743.78;5094712;28;20035;-67
2023/11/13 01:00:43;;;;;;;5.60;3.97;;;;;;;11.68;100.00;99757.38;5094205;28;20032;-66
2023/11/13 01:03:09;;;;;;;7.22;4.53;;;;;;;11.68;100.00;99757.38;5094604;28;20046;-64
2023/11/13 01:05:34;;;;;;;12.32;6.60;;;;;;;11.74;100.00;99750.56;5094731;28;20036;-64
2023/11/13 01:08:01;;;;;;;13.50;8.18;;;;;;;11.63;100.00;99753.56;5093596;28;20141;-67
2023/11/13 01:10:26;;;;;;;11.13;6.72;;;;;;;11.56;100.00;99749.94;5094197;28;20384;-66
2023/11/13 01:12:52;;;;;;;15.57;9.02;;;;;;;11.69;100.00;99758.19;5092236;28;20046;-64
2023/11/13 01:15:17;;;;;;;21.38;12.23;;;;;;;11.82;100.00;99763.84;5094792;28;20314;-65
2023/11/13 01:17:43;;;;;;;24.13;12.05;;;;;;;11.87;100.00;99753.53;5097660;28;20220;-67
2023/11/13 01:20:09;;;;;;;24.30;15.57;;;;;;;11.66;100.00;99750.56;5097135;28;20067;-66
2023/11/13 01:22:34;;;;;;;35.55;21.67;;;;;;;11.56;100.00;99748.09;5097327;28;20111;-65
2023/11/13 01:25:00;;;;;;;47.97;26.85;;;;;;;11.61;100.00;99743.13;5096190;28;20081;-64
2023/11/13 01:27:26;;;;;;;48.25;29.30;;;;;;;11.67;100.00;99736.31;5097842;28;20044;-65
2023/11/13 01:29:51;;;;;;;53.88;30.70;;;;;;;11.59;100.00;99723.06;5100217;28;20034;-66
2023/11/13 01:32:17;;;;;;;54.38;29.73;;;;;;;11.62;100.00;99720.91;5095729;28;20039;-66
2023/11/13 01:34:42;;;;;;;53.60;29.63;;;;;;;11.72;100.00;99713.59;5097205;28;20244;-65
2023/11/13 01:37:08;;;;;;;52.95;29.38;;;;;;;11.83;100.00;99715.06;5096998;28;20048;-64
2023/11/13 01:39:34;;;;;;;57.35;30.00;;;;;;;11.95;100.00;99716.38;5097256;28;20069;-67
2023/11/13 01:42:00;;;;;;;54.90;28.23;;;;;;;11.98;100.00;99715.19;5097294;28;20043;-66
2023/11/13 01:44:25;;;;;;;52.50;28.23;;;;;;;12.01;100.00;99714.84;5096541;28;20259;-65
2023/11/13 01:46:51;;;;;;;50.97;27.05;;;;;;;12.03;100.00;99719.00;5098501;28;20039;-64
2023/11/13 01:49:19;;;;;;;48.67;26.20;;;;;;;12.07;100.00;99720.28;5096178;28;20313;-65
2023/11/13 01:51:45;;;;;;;48.30;26.30;;;;;;;12.14;100.00;99733.72;5098465;28;20053;-67
2023/11/13 01:54:13;;;;;;;51.42;27.23;;;;;;;12.18;100.00;99737.66;5095990;28;20039;-66
2023/11/13 01:56:38;;;;;;;43.92;24.08;;;;;;;12.19;100.00;99738.50;5097387;28;20032;-65
2023/11/13 01:59:04;;;;;;;47.05;25.25;;;;;;;12.22;100.00;99741.63;5096250;28;20356;-65
2023/11/13 02:01:31;;;;;;;47.50;25.60;;;;;;;12.27;100.00;99735.81;5096763;28;20043;-66
2023/11/13 02:03:56;;;;;;;39.40;23.13;;;;;;;12.32;100.00;99744.09;5097071;28;20032;-67
2023/11/13 02:06:25;;;;;;;38.95;21.60;;;;;;;12.37;100.00;99739.06;5096636;28;20230;-65
2023/11/13 02:08:50;;;;;;;35.80;19.98;;;;;;;12.41;100.00;99735.91;5097127;28;20028;-64
2023/11/13 02:11:16;;;;;;;31.02;17.77;;;;;;;12.38;100.00;99725.63;5097368;28;20353;-64
2023/11/13 02:13:44;;;;;;;28.63;16.52;;;;;;;12.45;100.00;99733.72;5096722;28;20218;-66
2023/11/13 02:16:12;;;;;;;24.13;14.38;;;;;;;12.43;100.00;99722.44;5095686;28;20389;-67
2023/11/13 02:18:38;;;;;;;19.70;12.70;;;;;;;12.48;100.00;99725.41;5096188;28;20234;-64
2023/11/13 02:21:04;;;;;;;24.10;14.00;;;;;;;12.51;100.00;99727.75;5096297;28;20070;-64
2023/11/13 02:23:29;;;;;;;24.63;14.77;;;;;;;12.48;100.00;99720.09;5096829;28;20042;-66
2023/11/13 02:25:56;;;;;;;21.67;12.43;;;;;;;12.41;100.00;99722.63;5096161;28;20040;-67
2023/11/13 02:28:22;;;;;;;25.15;14.65;;;;;;;12.38;100.00;99722.97;5096046;28;20059;-65
2023/11/13 02:30:48;;;;;;;25.73;14.02;;;;;;;12.37;100.00;99715.19;5096188;28;20071;-65
2023/11/13 02:33:14;;;;;;;24.58;12.90;;;;;;;12.36;100.00;99714.34;5095865;28;20314;-66
2023/11/13 02:35:39;;;;;;;20.30;11.90;;;;;;;12.37;100.00;99704.56;5096717;28;20040;-66
2023/11/13 02:38:05;;;;;;;23.17;12.05;;;;;;;12.45;100.00;99708.00;5097191;28;20082;-67
2023/11/13 02:40:31;;;;;;;21.20;11.45;;;;;;;12.48;100.00;99712.13;5096453;28;20043;-64
2023/11/13 02:42:56;;;;;;;19.55;10.55;;;;;;;12.48;100.00;99720.09;5094718;28;20036;-65
2023/11/13 02:45:26;;;;;;;20.35;11.20;;;;;;;12.50;100.00;99719.94;5095553;28;20202;-65
2023/11/13 02:47:54;;;;;;;20.30;10.43;;;;;;;12.52;100.00;99721.44;5095906;28;20042;-66
2023/11/13 02:50:21;;;;;;;11.68;7.88;;;;;;;12.41;100.00;99713.81;5095725;28;20036;-66
2023/11/13 02:52:47;;;;;;;13.13;8.70;;;;;;;12.44;100.00;99710.81;5095764;28;20027;-64
2023/11/13 02:55:12;;;;;;;16.48;8.98;;;;;;;12.41;100.00;99716.47;5095342;28;20036;-65
2023/11/13 02:57:38;;;;;;;12.73;8.57;;;;;;;12.40;100.00;99722.78;5095661;28;20111;-66
2023/11/13 03:00:09;;;;;;;14.10;8.40;;;;;;;12.40;100.00;99726.28;5096214;28;20040;-67
2023/11/13 03:02:35;;;;;;;16.30;8.93;;;;;;;12.38;100.00;99724.78;5095217;28;20032;-65
2023/11/13 03:05:01;;;;;;;15.40;9.38;;;;;;;12.36;100.00;99726.81;5095475;28;20043;-65
2023/11/13 03:07:26;;;;;;;16.75;10.95;;;;;;;12.37;100.00;99731.09;5094621;28;20044;-65
2023/11/13 03:09:55;;;;;;;17.45;10.90;;;;;;;12.34;100.00;99726.97;5095077;28;20043;-66
2023/11/13 03:12:22;;;;;;;19.73;11.32;;;;;;;12.38;100.00;99730.09;5095321;28;20081;-66
2023/11/13 03:14:48;;;;;;;22.33;10.52;;;;;;;12.31;100.00;99726.50;5095741;28;20100;-65
2023/11/13 03:17:14;;;;;;;21.67;12.07;;;;;;;12.25;100.00;99732.50;5096087;28;20193;-64
2023/11/13 03:19:39;;;;;;;22.58;13.45;;;;;;;12.20;100.00;99732.19;5095535;28;20067;-64
2023/11/13 03:22:05;;;;;;;19.17;11.52;;;;;;;12.18;100.00;99736.84;5095085;28;20035;-66
2023/11/13 03:24:30;;;;;;;22.02;12.63;;;;;;;12.23;100.00;99735.31;5094676;28;20036;-66
2023/11/13 03:26:56;;;;;;;23.02;12.68;;;;;;;12.26;100.00;99729.66;5095476;28;20036;-64
2023/11/13 03:29:21;;;;;;;17.83;11.40;;;;;;;12.25;100.00;99729.84;5094416;28;20030;-64
2023/11/13 03:31:47;;;;;;;19.10;9.95;;;;;;;12.11;100.00;99734.06;5095862;28;20035;-67
2023/11/13 03:34:12;;;;;;;17.10;10.30;;;;;;;12.11;100.00;99731.41;5095427;28;20032;-66
2023/11/13 03:36:38;;;;;;;15.65;9.10;;;;;;;12.15;100.00;99725.56;5094583;28;20040;-64
2023/11/13 03:39:03;;;;;;;12.23;8.10;;;;;;;12.20;100.00;99735.66;5094190;28;20237;-64
2023/11/13 03:41:29;;;;;;;11.15;7.82;;;;;;;12.23;100.00;99732.66;5094679;28;20514;-65
2023/11/13 03:43:54;;;;;;;22.42;8.10;;;;;;;12.28;100.00;99737.47;5095322;28;20095;-66
2023/11/13 03:46:20;;;;;;;15.60;9.27;;;;;;;12.32;100.00;99738.78;5094505;28;20211;-67
2023/11/13 03:48:46;;;;;;;13.23;8.00;;;;;;;12.33;100.00;99738.59;5094980;28;20036;-64
2023/11/13 03:51:11;;;;;;;15.02;8.73;;;;;;;12.31;100.00;99726.50;5094030;28;20223;-65
2023/11/13 03:53:36;;;;;;;13.43;8.10;;;;;;;12.30;100.00;99722.19;5093753;28;20370;-66
2023/11/13 03:56:02;;;;;;;11.43;7.50;;;;;;;12.35;100.00;99727.81;5094332;28;20032;-66
2023/11/13 03:58:27;;;;;;;10.88;7.07;;;;;;;12.37;100.00;99720.50;5096489;28;20028;-66
2023/11/13 04:00:53;;;;;;;10.50;7.72;;;;;;;12.40;100.00;99730.75;5094122;28;20044;-64
2023/11/13 04:03:19;;;;;;;13.40;7.78;;;;;;;12.41;100.00;99735.06;5094744;28;20211;-64
2023/11/13 04:05:44;;;;;;;12.27;7.18;;;;;;;12.42;100.00;99736.72;5095393;28;20347;-66
2023/11/13 04:08:09;;;;;;;12.70;6.65;;;;;;;12.38;100.00;99735.41;5094353;28;20226;-67
2023/11/13 04:10:35;;;;;;;10.02;6.00;;;;;;;12.37;100.00;99728.44;5094326;28;20038;-64
2023/11/13 04:13:01;;;;;;;10.00;6.13;;;;;;;12.33;100.00;99727.16;5094211;28;20050;-64
2023/11/13 04:15:27;;;;;;;13.02;7.65;;;;;;;12.26;100.00;99726.19;5094913;28;20051;-66
2023/11/13 04:17:52;;;;;;;11.15;6.68;;;;;;;12.19;100.00;99731.34;5094534;28;20032;-67
2023/11/13 04:20:21;;;;;;;8.63;5.78;;;;;;;12.14;100.00;99721.25;5092894;28;20038;-65
2023/11/13 04:22:47;;;;;;;7.88;4.88;;;;;;;12.08;100.00;99726.44;5094565;28;20107;-65
2023/11/13 04:25:13;;;;;;;8.13;4.53;;;;;;;12.06;100.00;99731.91;5095081;28;20048;-64
2023/11/13 04:27:39;;;;;;;7.72;4.95;;;;;;;12.04;100.00;99725.94;5094348;28;20036;-66
2023/11/13 04:30:07;;;;;;;7.03;4.30;;;;;;;12.10;100.00;99721.78;5095411;28;20028;-67
2023/11/13 04:32:32;;;;;;;5.57;4.40;;;;;;;12.14;100.00;99726.56;5093053;28;20076;-65
2023/11/13 04:34:58;;;;;;;7.95;4.22;;;;;;;12.19;100.00;99733.19;5095069;28;20040;-65
2023/11/13 04:37:23;;;;;;;5.72;4.18;;;;;;;12.19;100.00;99739.31;5093820;28;20036;-64
2023/11/13 04:39:49;;;;;;;7.07;5.13;;;;;;;12.21;100.00;99747.94;5094775;28;20036;-65
2023/11/13 04:42:14;;;;;;;6.65;4.75;;;;;;;12.18;100.00;99742.16;5094344;28;20387;-64
2023/11/13 04:44:40;;;;;;;8.38;5.70;;;;;;;12.19;100.00;99757.06;5093803;28;20038;-62
2023/11/13 04:47:06;;;;;;;11.05;5.82;;;;;;;12.20;100.00;99759.56;5096132;28;20363;-63
2023/11/13 04:49:31;;;;;;;6.85;5.35;;;;;;;12.19;100.00;99751.78;5094197;28;20028;-64
2023/11/13 04:51:57;;;;;;;8.07;5.40;;;;;;;12.22;100.00;99762.88;5098330;28;20309;-65
2023/11/13 04:54:22;;;;;;;7.05;4.60;;;;;;;12.26;100.00;99763.34;5098115;28;20032;-64
2023/11/13 04:56:48;;;;;;;7.93;5.25;;;;;;;12.27;100.00;99762.34;5098073;28;20036;-64
2023/11/13 04:59:13;;;;;;;6.50;4.70;;;;;;;12.25;100.00;99753.72;5097341;28;20043;-64
2023/11/13 05:01:39;;;;;;;10.80;5.15;;;;;;;12.27;100.00;99763.19;5098918;28;20114;-64
2023/11/13 05:04:09;;;;;;;8.63;4.60;;;;;;;12.27;100.00;99768.50;5096830;28;20345;-66
2023/11/13 05:06:35;;;;;;;5.65;4.57;;;;;;;12.27;100.00;99770.31;5097086;28;20364;-65
2023/11/13 05:09:03;;;;;;;9.60;4.95;;;;;;;12.23;100.00;99776.97;5097286;28;20031;-64
2023/11/13 05:11:28;;;;;;;7.72;4.78;;;;;;;12.22;100.00;99792.06;5097836;28;20736;-65
2023/11/13 05:13:54;;;;;;;10.10;5.40;;;;;;;12.23;100.00;99799.03;5098469;28;20119;-63
2023/11/13 05:16:24;;;;;;;8.88;5.72;;;;;;;12.23;100.00;99803.53;5097474;28;20480;-64
2023/11/13 05:18:51;;;;;;;7.68;4.88;;;;;;;12.21;100.00;99805.50;5098108;28;20081;-66
2023/11/13 05:21:17;;;;;;;10.85;5.45;;;;;;;12.13;100.00;99815.16;5098053;28;20031;-64
2023/11/13 05:23:43;;;;;;;7.07;4.90;;;;;;;12.17;100.00;99814.81;5097451;28;20065;-65
2023/11/13 05:26:08;;;;;;;9.32;5.20;;;;;;;12.15;100.00;99821.13;5097436;28;20095;-64
2023/11/13 05:28:34;;;;;;;9.07;5.07;;;;;;;12.18;100.00;99821.78;5096489;28;20074;-66
2023/11/13 05:30:59;;;;;;;8.55;5.05;;;;;;;12.18;100.00;99822.63;5097307;28;20049;-64
2023/11/13 05:33:25;;;;;;;6.72;5.07;;;;;;;12.14;100.00;99816.00;5097490;28;20122;-64
2023/11/13 05:35:50;;;;;;;8.50;5.28;;;;;;;12.14;100.00;99830.09;5096833;28;20066;-64
2023/11/13 05:38:16;;;;;;;9.27;7.15;;;;;;;12.17;100.00;99836.06;5095144;28;20036;-62
2023/11/13 05:40:44;;;;;;;13.30;8.55;;;;;;;12.20;100.00;99839.19;5097095;28;20201;-64
2023/11/13 05:43:10;;;;;;;16.15;10.23;;;;;;;12.17;100.00;99844.03;5096661;28;20059;-64
2023/11/13 05:45:36;;;;;;;17.10;10.40;;;;;;;12.14;100.00;99842.53;5096313;28;20028;-62
2023/11/13 05:48:02;;;;;;;15.65;8.50;;;;;;;12.08;100.00;99837.91;5096518;28;20422;-63
2023/11/13 05:50:27;;;;;;;14.13;8.73;;;;;;;12.06;100.00;99839.91;5096446;28;20032;-62
2023/11/13 05:52:53;;;;;;;12.77;8.27;;;;;;;12.06;100.00;99845.22;5096166;28;20217;-65
2023/11/13 05:55:18;;;;;;;12.13;8.63;;;;;;;12.09;100.00;99851.00;5095591;28;20197;-64
2023/11/13 05:57:45;;;;;;;12.35;7.68;;;;;;;12.08;100.00;99856.47;5096140;28;20445;-62
2023/11/13 06:00:12;;;;;;;19.42;13.32;;;;;;;12.02;100.00;99860.63;5095535;28;20032;-62
2023/11/13 06:02:38;;;;;;;24.85;13.77;;;;;;;12.05;100.00;99865.63;5082417;28;20286;-62
2023/11/13 06:05:04;;;;;;;18.00;10.75;;;;;;;12.08;100.00;99865.28;5083762;28;20220;-64
2023/11/13 06:07:30;;;;;;;16.60;10.73;;;;;;;12.12;100.00;99857.81;5083730;28;20031;-66
2023/11/13 06:09:56;;;;;;;15.88;9.45;;;;;;;12.19;100.00;99860.59;5083460;28;20103;-65
2023/11/13 06:12:23;;;;;;;13.45;9.20;;;;;;;12.22;100.00;99868.22;5084088;28;20037;-64
2023/11/13 06:14:49;;;;;;;12.15;7.93;;;;;;;12.27;100.00;99868.56;5084121;28;20029;-64
2023/11/13 06:17:15;;;;;;;13.75;8.52;;;;;;;12.27;100.00;99865.91;5092820;28;20222;-65
2023/11/13 06:19:41;;;;;;;13.18;8.02;;;;;;;12.37;100.00;99872.66;5095382;28;20032;-66
2023/11/13 06:22:09;;;;;;;12.68;7.65;;;;;;;12.42;100.00;99873.00;5095767;28;20043;-64
2023/11/13 06:24:39;;;;;;;8.95;5.68;;;;;;;12.50;100.00;99876.66;5096457;28;20098;-62
2023/11/13 06:27:07;;;;;;;10.18;6.80;;;;;;;12.53;100.00;99881.63;5096756;28;20210;-62
2023/11/13 06:29:33;;;;;;;12.43;7.63;;;;;;;12.57;100.00;99889.06;5095590;28;20089;-64
2023/11/13 06:31:58;;;;;;;9.55;6.97;;;;;;;12.59;100.00;99888.91;5096711;28;20228;-65
2023/11/13 06:34:24;;;;;;;8.05;5.80;;;;;;;12.67;100.00;99886.22;5095890;28;20349;-64
2023/11/13 06:36:51;;;;;;;9.35;4.65;;;;;;;12.82;100.00;99886.31;5096767;28;20304;-64
2023/11/13 06:39:17;;;;;;;6.35;4.90;;;;;;;12.85;100.00;99888.63;5096292;28;20361;-62
2023/11/13 06:41:44;;;;;;;7.05;5.57;;;;;;;12.89;100.00;99898.75;5098129;28;20031;-64
2023/11/13 06:44:10;;;;;;;5.88;5.18;;;;;;;13.04;100.00;99896.19;5096128;28;20317;-64
2023/11/13 06:46:36;;;;;;;9.70;5.45;;;;;;;12.81;100.00;99904.09;5095048;28;20074;-63
2023/11/13 06:49:01;;;;;;;7.85;5.70;;;;;;;12.72;100.00;99887.34;5097179;28;20040;-62
2023/11/13 06:51:27;;;;;;;7.68;5.68;;;;;;;12.90;100.00;99907.53;5094995;28;20044;-64
2023/11/13 06:53:52;;;;;;;7.45;5.70;;;;;;;12.91;100.00;99914.50;5095516;28;20046;-66
2023/11/13 06:56:18;;;;;;;6.28;4.75;;;;;;;12.76;100.00;99912.56;5095888;28;20032;-67
2023/11/13 06:58:44;;;;;;;6.05;4.53;;;;;;;12.41;100.00;99920.97;5095920;28;20081;-64
2023/11/13 07:01:09;;;;;;;9.32;7.00;;;;;;;12.39;100.00;99920.31;5095196;28;20028;-64
2023/11/13 07:03:35;;;;;;;9.73;7.65;;;;;;;12.50;100.00;99927.94;5095481;28;20059;-66
2023/11/13 07:06:01;;;;;;;7.88;6.38;;;;;;;12.17;100.00;99919.19;5095147;28;20043;-65
2023/11/13 07:08:26;;;;;;;8.25;5.80;;;;;;;12.40;100.00;99927.28;5095762;28;20039;-64
2023/11/13 07:10:52;;;;;;;7.13;4.88;;;;;;;12.17;100.00;99931.63;5094949;28;20261;-64
2023/11/13 07:13:18;;;;;;;8.15;5.20;;;;;;;12.07;100.00;99907.91;5093499;28;20036;-64
2023/11/13 07:15:44;;;;;;;6.30;5.07;;;;;;;12.33;100.00;99926.28;5095345;28;20236;-65
2023/11/13 07:18:09;;;;;;;6.93;4.70;;;;;;;12.41;100.00;99921.78;5093587;28;20274;-66
2023/11/13 07:20:35;;;;;;;6.93;4.72;;;;;;;12.43;100.00;99911.81;5094553;28;20079;-64
2023/11/13 07:23:02;;;;;;;7.18;3.85;;;;;;;12.41;100.00;99910.34;5093648;28;20149;-65
2023/11/13 07:25:29;;;;;;;9.07;5.07;;;;;;;12.57;100.00;99917.47;5093476;28;20075;-64
2023/11/13 07:27:56;;;;;;;6.75;5.13;;;;;;;12.65;100.00;99914.78;5094705;28;20039;-65
2023/11/13 07:30:22;;;;;;;8.93;5.45;;;;;;;12.70;100.00;99913.28;5093856;28;20036;-65
2023/11/13 07:32:47;;;;;;;6.30;4.68;;;;;;;12.79;100.00;99920.22;5094617;28;20199;-64
2023/11/13 07:35:13;;;;;;;7.93;4.57;;;;;;;12.88;100.00;99909.53;5094728;28;20038;-63
2023/11/13 07:37:39;;;;;;;9.60;5.50;;;;;;;12.96;100.00;99902.38;5093705;28;20035;-64
2023/11/13 07:40:09;;;;;;;6.47;5.75;;;;;;;13.00;100.00;99900.19;5093230;28;20362;-66
2023/11/13 07:42:36;;;;;;;8.15;5.57;;;;;;;13.02;100.00;99882.22;5092942;28;20039;-66
2023/11/13 07:45:03;;;;;;;8.35;4.35;;;;;;;13.14;99.76;99901.28;5096632;28;20044;-65
2023/11/13 07:47:28;;;;;;;8.10;4.47;;;;;;;13.22;99.83;99903.91;5096533;28;20051;-64
2023/11/13 07:49:56;;;;;;;7.13;3.85;;;;;;;13.22;99.55;99912.72;5096770;28;20378;-63
2023/11/13 07:52:23;;;;;;;8.18;4.47;;;;;;;13.27;98.54;99910.38;5096842;28;20103;-66
2023/11/13 07:54:48;;;;;;;6.35;4.40;;;;;;;13.24;98.58;99907.22;5096721;28;20028;-66
2023/11/13 07:57:14;;;;;;;5.60;4.13;;;;;;;13.19;98.91;99902.44;5096431;28;20036;-64
2023/11/13 07:59:41;;;;;;;7.10;4.70;;;;;;;13.18;98.86;99897.28;5096744;28;20064;-65
2023/11/13 08:02:09;;;;;;;6.22;4.20;;;;;;;12.96;98.66;99889.06;5097034;28;20074;-65
2023/11/13 08:04:35;;;;;;;6.20;4.07;;;;;;;13.11;98.90;99889.16;5096266;28;20066;-67
2023/11/13 08:07:02;;;;;;;5.45;4.22;;;;;;;13.37;98.81;99895.00;5096570;28;20067;-66
2023/11/13 08:09:28;;;;;;;5.43;3.60;;;;;;;13.61;97.57;99893.22;5096545;28;20031;-64
2023/11/13 08:11:54;;;;;;;6.88;3.13;;;;;;;13.78;95.25;99886.75;5095656;28;20364;-65
2023/11/13 08:14:21;;;;;;;5.78;3.45;;;;;;;13.86;92.48;99889.34;5096756;28;20209;-65
2023/11/13 08:16:46;;;;;;;6.95;3.97;;;;;;;14.09;91.86;99897.28;5096856;28;20043;-66
2023/11/13 08:19:12;;;;;;;4.07;3.17;;;;;;;14.14;91.96;99894.91;5095595;28;20260;-66
2023/11/13 08:21:37;;;;;;;5.45;3.40;;;;;;;13.98;91.24;99897.72;5096449;28;20088;-64
2023/11/13 08:24:04;;;;;;;7.75;4.07;;;;;;;14.09;91.16;99894.63;5096631;28;20044;-64
2023/11/13 08:26:29;;;;;;;5.47;3.42;;;;;;;14.35;92.03;99894.19;5095607;28;20361;-64
2023/11/13 08:28:57;;;;;;;8.35;4.10;;;;;;;14.48;91.01;99890.94;5096429;28;20024;-66
2023/11/13 08:31:25;;;;;;;5.95;3.63;;;;;;;14.56;89.13;99891.66;5094549;28;20051;-67
2023/11/13 08:33:51;;;;;;;3.72;2.65;;;;;;;14.37;88.85;99884.19;5095973;28;20066;-64
2023/11/13 08:36:21;;;;;;;3.65;2.67;;;;;;;14.48;87.11;99886.44;5096087;28;20242;-64
2023/11/13 08:38:47;;;;;;;2.78;2.38;;;;;;;14.50;88.32;99892.41;5096225;28;20074;-64
2023/11/13 08:41:13;;;;;;;6.45;2.70;;;;;;;14.52;87.76;99890.38;5096325;28;20682;-66
2023/11/13 08:43:39;;;;;;;3.83;2.15;;;;;;;14.50;86.65;99888.91;5095826;28;20031;-66
2023/11/13 08:46:04;;;;;;;3.65;2.50;;;;;;;14.49;86.63;99890.75;5095762;28;20042;-65
2023/11/13 08:48:30;;;;;;;4.80;2.30;;;;;;;14.29;87.23;99887.78;5095585;28;20044;-64
2023/11/13 08:50:59;;;;;;;4.15;2.40;;;;;;;14.32;87.88;99892.72;5096004;28;20054;-64
2023/11/13 08:53:27;;;;;;;3.63;2.30;;;;;;;14.34;88.20;99900.53;5096057;28;20250;-64
2023/11/13 08:55:53;;;;;;;3.63;2.70;;;;;;;13.97;89.59;99890.75;5094846;28;20031;-66
2023/11/13 08:58:18;;;;;;;4.05;2.13;;;;;;;14.09;88.95;99897.28;5095846;28;20265;-66
2023/11/13 09:00:44;;;;;;;3.42;2.28;;;;;;;14.18;87.93;99901.53;5095924;28;20217;-64
2023/11/13 09:03:11;;;;;;;3.92;2.50;;;;;;;14.28;87.83;99903.94;5095030;28;20050;-64
2023/11/13 09:05:37;;;;;;;5.57;2.70;;;;;;;14.00;88.82;99903.69;5096426;28;20044;-64
2023/11/13 09:08:03;;;;;;;3.80;2.60;;;;;;;13.97;89.98;99896.91;5096223;28;20354;-64
2023/11/13 09:10:29;;;;;;;3.35;2.45;;;;;;;13.94;90.75;99899.94;5095439;28;20473;-66
2023/11/13 09:12:59;;;;;;;3.92;2.28;;;;;;;13.92;91.77;99891.28;5095446;28;20039;-64
2023/11/13 09:15:27;;;;;;;4.00;2.50;;;;;;;13.98;89.47;99895.06;5095753;28;20047;-64
2023/11/13 09:17:58;;;;;;;5.85;2.63;;;;;;;13.80;91.22;99884.75;5094884;28;20042;-65
2023/11/13 09:20:24;;;;;;;3.58;2.53;;;;;;;13.76;92.81;99887.94;5095829;28;20079;-64
2023/11/13 09:22:54;;;;;;;3.28;2.22;;;;;;;13.84;89.76;99879.88;5095946;28;20040;-66
2023/11/13 09:25:21;;;;;;;3.92;2.00;;;;;;;13.80;90.41;99874.09;5095510;28;20032;-66
2023/11/13 09:27:51;;;;;;;3.15;2.20;;;;;;;13.82;91.76;99866.75;5095825;28;20354;-64
2023/11/13 09:30:19;;;;;;;2.47;2.05;;;;;;;14.05;90.93;99859.56;5095529;28;20052;-64
2023/11/13 09:32:49;;;;;;;3.72;2.05;;;;;;;14.07;87.69;99860.19;5094420;28;20073;-64
2023/11/13 09:35:26;;;;;;;4.38;1.75;;;;;;;13.83;86.31;99849.78;5095494;28;20112;-65
2023/11/13 09:37:57;;;;;;;2.95;2.20;;;;;;;13.89;88.71;99837.59;5099646;28;20028;-66
2023/11/13 09:40:34;;;;;;;4.05;2.13;;;;;;;14.07;88.18;99838.06;5099216;28;20028;-65
2023/11/13 09:43:24;;;;;;;3.00;1.63;;;;;;;14.10;85.99;99832.38;5099845;28;20036;-65
2023/11/13 09:45:55;;;;;;;2.05;1.38;;;;;;;14.26;85.78;99826.88;5099320;28;20066;-64
2023/11/13 09:48:28;;;;;;;2.38;1.65;;;;;;;14.39;84.98;99832.38;5098894;28;20066;-65
2023/11/13 09:50:57;;;;;;;4.10;2.10;;;;;;;14.25;84.96;99824.41;5098491;28;20054;-66
2023/11/13 09:53:25;;;;;;;1.85;1.60;;;;;;;14.32;82.55;99817.31;5099904;28;20032;-66
2023/11/13 09:55:51;;;;;;;1.90;1.65;;;;;;;14.39;83.13;99821.72;5098705;28;20029;-64
2023/11/13 09:58:18;;;;;;;3.28;2.15;;;;;;;14.43;85.65;99821.41;5098594;28;20024;-64
2023/11/13 10:00:44;;;;;;;3.38;2.45;;;;;;;14.29;85.08;99821.19;5099151;28;20097;-64
2023/11/13 10:03:09;;;;;;;3.70;1.98;;;;;;;14.10;83.66;99821.72;5099024;28;20474;-64
2023/11/13 10:05:38;;;;;;;2.33;1.70;;;;;;;14.10;85.73;99818.25;5098988;28;20046;-66
2023/11/13 10:08:04;;;;;;;2.92;2.17;;;;;;;14.24;85.95;99806.75;5098832;28;20032;-66
2023/11/13 10:10:30;;;;;;;4.28;2.10;;;;;;;14.37;84.13;99809.59;5098413;28;20384;-65
2023/11/13 10:13:00;;;;;;;3.75;1.80;;;;;;;14.39;78.65;99802.25;5098556;28;20225;-64
2023/11/13 10:15:28;;;;;;;3.97;1.52;;;;;;;14.41;80.68;99802.91;5098778;28;20040;-64
2023/11/13 10:17:59;;;;;;;3.08;1.92;;;;;;;14.50;82.23;99803.66;5098539;28;20222;-66
2023/11/13 10:20:28;;;;;;;3.78;2.13;;;;;;;14.39;79.62;99813.75;5097945;28;20043;-66
2023/11/13 10:23:00;;;;;;;2.47;1.88;;;;;;;14.42;75.16;99809.06;5099103;28;20103;-65
2023/11/13 10:25:40;;;;;;;3.47;1.75;;;;;;;14.44;76.07;99826.53;5098120;28;20036;-65
2023/11/13 10:28:08;;;;;;;3.45;2.10;;;;;;;14.51;75.97;99827.44;5098656;28;20271;-64
2023/11/13 10:30:35;;;;;;;1.45;1.25;;;;;;;14.62;73.89;99832.34;5098103;28;20384;-66
2023/11/13 10:33:14;;;;;;;4.78;2.22;;;;;;;14.59;74.99;99824.72;5097407;28;20039;-66
2023/11/13 10:35:42;;;;;;;3.78;2.20;;;;;;;14.68;75.79;99820.09;5098633;28;20039;-65
2023/11/13 10:38:10;;;;;;;4.70;4.10;;;;;;;14.75;75.90;99823.69;5098682;28;20209;-64
2023/11/13 10:40:39;;;;;;;4.68;2.35;;;;;;;14.86;74.33;99817.03;5097871;28;20063;-64
2023/11/13 10:43:07;;;;;;;5.15;2.90;;;;;;;14.87;73.18;99814.19;5098807;28;20036;-64
2023/11/13 10:45:35;;;;;;;5.45;3.15;;;;;;;14.84;73.26;99814.56;5098213;28;20111;-64
2023/11/13 10:48:01;;;;;;;5.38;3.00;;;;;;;14.86;74.67;99804.53;5097355;28;20047;-66
2023/11/13 10:50:27;;;;;;;5.47;3.15;;;;;;;14.93;75.11;99804.59;5097886;28;20101;-64
2023/11/13 10:52:54;;;;;;;4.78;3.72;;;;;;;14.90;77.26;99803.13;5097966;28;20031;-64
2023/11/13 10:55:22;;;;;;;4.20;2.78;;;;;;;14.85;74.48;99799.38;5097780;28;20067;-64
2023/11/13 10:57:47;;;;;;;4.68;2.60;;;;;;;14.90;72.33;99804.97;5098025;28;20044;-64
2023/11/13 11:00:14;;;;;;;3.33;2.78;;;;;;;14.80;72.73;99801.78;5097175;28;20068;-64
2023/11/13 11:02:45;;;;;;;4.65;2.70;;;;;;;14.83;73.66;99804.06;5096861;28;20050;-67
2023/11/13 11:05:20;;;;;;;3.17;2.50;;;;;;;14.87;72.99;99800.84;5095096;28;20024;-66
2023/11/13 11:07:54;;;;;;;2.42;2.15;;;;;;;14.95;74.73;99794.56;5095796;28;20325;-63
2023/11/13 11:10:24;;;;;;;4.47;2.55;;;;;;;14.97;73.97;99804.03;5096684;28;20028;-64
2023/11/13 11:13:13;;;;;;;2.10;1.90;;;;;;;14.88;72.63;99796.34;5093126;28;20146;-64
2023/11/13 11:15:45;;;;;;;2.13;1.98;;;;;;;15.02;71.66;99806.97;5093122;28;20067;-64
2023/11/13 11:18:23;;;;;;;3.88;2.17;;;;;;;15.05;71.78;99799.59;5089739;28;20214;-64
2023/11/13 11:21:07;;;;;;;3.22;1.70;;;;;;;14.95;70.07;99790.06;5091116;28;20211;-67
2023/11/13 11:23:48;;;;;;;2.88;1.70;;;;;;;14.93;71.33;99791.28;5096160;28;20043;-64